sensor_id;sensor_type;location;lat;lon;timestamp;pressure;altitude;pressure_sealevel;temperature
67822;BMP180;54434;50.096;20.082;2023-07-24T00:01:33;98371.60;;;17.30
67822;BMP180;54434;50.096;20.082;2023-07-24T00:04:10;98374.00;;;17.30
67822;BMP180;54434;50.096;20.082;2023-07-24T00:06:46;98368.60;;;17.30
67822;BMP180;54434;50.096;20.082;2023-07-24T00:09:23;98364.60;;;17.30
67822;BMP180;54434;50.096;20.082;2023-07-24T00:11:59;98366.00;;;17.30
67822;BMP180;54434;50.096;20.082;2023-07-24T00:14:36;98364.40;;;17.30
67822;BMP180;54434;50.096;20.082;2023-07-24T00:17:12;98363.60;;;17.30
67822;BMP180;54434;50.096;20.082;2023-07-24T00:19:49;98360.40;;;17.30
67822;BMP180;54434;50.096;20.082;2023-07-24T00:22:25;98357.00;;;17.30
67822;BMP180;54434;50.096;20.082;2023-07-24T00:25:02;98359.00;;;17.30
67822;BMP180;54434;50.096;20.082;2023-07-24T00:27:40;98356.60;;;17.30
67822;BMP180;54434;50.096;20.082;2023-07-24T00:30:17;98354.80;;;17.30
67822;BMP180;54434;50.096;20.082;2023-07-24T00:32:54;98356.40;;;17.30
67822;BMP180;54434;50.096;20.082;2023-07-24T00:35:30;98352.60;;;17.30
67822;BMP180;54434;50.096;20.082;2023-07-24T00:38:06;98349.60;;;17.30
67822;BMP180;54434;50.096;20.082;2023-07-24T00:40:43;98349.80;;;17.30
67822;BMP180;54434;50.096;20.082;2023-07-24T00:43:19;98343.40;;;17.30
67822;BMP180;54434;50.096;20.082;2023-07-24T00:45:57;98341.80;;;17.30
67822;BMP180;54434;50.096;20.082;2023-07-24T00:48:34;98337.00;;;17.30
67822;BMP180;54434;50.096;20.082;2023-07-24T00:51:11;98336.80;;;17.32
67822;BMP180;54434;50.096;20.082;2023-07-24T00:53:47;98336.80;;;17.34
67822;BMP180;54434;50.096;20.082;2023-07-24T00:56:24;98336.60;;;17.38
67822;BMP180;54434;50.096;20.082;2023-07-24T00:59:02;98336.80;;;17.40
67822;BMP180;54434;50.096;20.082;2023-07-24T01:01:41;98339.80;;;17.40
67822;BMP180;54434;50.096;20.082;2023-07-24T01:04:20;98338.80;;;17.40
67822;BMP180;54434;50.096;20.082;2023-07-24T01:06:59;98336.20;;;17.40
67822;BMP180;54434;50.096;20.082;2023-07-24T01:09:35;98330.60;;;17.40
67822;BMP180;54434;50.096;20.082;2023-07-24T01:12:22;98331.40;;;17.40
67822;BMP180;54434;50.096;20.082;2023-07-24T01:15:12;98336.60;;;17.40
67822;BMP180;54434;50.096;20.082;2023-07-24T01:18:05;98334.80;;;17.40
67822;BMP180;54434;50.096;20.082;2023-07-24T01:20:52;98332.60;;;17.46
67822;BMP180;54434;50.096;20.082;2023-07-24T01:23:49;98332.00;;;17.48
67822;BMP180;54434;50.096;20.082;2023-07-24T01:26:30;98329.20;;;17.50
67822;BMP180;54434;50.096;20.082;2023-07-24T01:29:06;98331.60;;;17.50
67822;BMP180;54434;50.096;20.082;2023-07-24T01:31:43;98326.40;;;17.50
67822;BMP180;54434;50.096;20.082;2023-07-24T01:34:21;98322.60;;;17.50
67822;BMP180;54434;50.096;20.082;2023-07-24T01:36:57;98322.40;;;17.50
67822;BMP180;54434;50.096;20.082;2023-07-24T01:39:34;98319.60;;;17.50
67822;BMP180;54434;50.096;20.082;2023-07-24T01:42:11;98316.00;;;17.50
67822;BMP180;54434;50.096;20.082;2023-07-24T01:44:54;98319.00;;;17.50
67822;BMP180;54434;50.096;20.082;2023-07-24T01:47:31;98318.40;;;17.56
67822;BMP180;54434;50.096;20.082;2023-07-24T01:50:10;98320.20;;;17.60
67822;BMP180;54434;50.096;20.082;2023-07-24T01:52:46;98317.80;;;17.58
67822;BMP180;54434;50.096;20.082;2023-07-24T01:55:23;98319.60;;;17.60
67822;BMP180;54434;50.096;20.082;2023-07-24T01:57:59;98325.00;;;17.60
67822;BMP180;54434;50.096;20.082;2023-07-24T02:00:36;98324.20;;;17.60
67822;BMP180;54434;50.096;20.082;2023-07-24T02:03:12;98320.80;;;17.60
67822;BMP180;54434;50.096;20.082;2023-07-24T02:05:53;98333.60;;;17.60
67822;BMP180;54434;50.096;20.082;2023-07-24T02:08:30;98331.80;;;17.60
67822;BMP180;54434;50.096;20.082;2023-07-24T02:11:06;98332.40;;;17.60
67822;BMP180;54434;50.096;20.082;2023-07-24T02:13:44;98326.20;;;17.62
67822;BMP180;54434;50.096;20.082;2023-07-24T02:16:21;98318.80;;;17.70
67822;BMP180;54434;50.096;20.082;2023-07-24T02:18:58;98317.60;;;17.70
67822;BMP180;54434;50.096;20.082;2023-07-24T02:21:34;98323.00;;;17.76
67822;BMP180;54434;50.096;20.082;2023-07-24T02:24:10;98323.40;;;17.80
67822;BMP180;54434;50.096;20.082;2023-07-24T02:26:47;98321.80;;;17.80
67822;BMP180;54434;50.096;20.082;2023-07-24T02:29:23;98319.20;;;17.80
67822;BMP180;54434;50.096;20.082;2023-07-24T02:32:00;98316.80;;;17.80
67822;BMP180;54434;50.096;20.082;2023-07-24T02:34:36;98323.00;;;17.80
67822;BMP180;54434;50.096;20.082;2023-07-24T02:37:15;98316.20;;;17.80
67822;BMP180;54434;50.096;20.082;2023-07-24T02:39:52;98316.00;;;17.82
67822;BMP180;54434;50.096;20.082;2023-07-24T02:42:29;98315.20;;;17.90
67822;BMP180;54434;50.096;20.082;2023-07-24T02:45:08;98318.20;;;17.90
67822;BMP180;54434;50.096;20.082;2023-07-24T02:47:46;98313.20;;;17.90
67822;BMP180;54434;50.096;20.082;2023-07-24T02:50:22;98312.20;;;17.90
67822;BMP180;54434;50.096;20.082;2023-07-24T02:52:58;98315.40;;;17.90
67822;BMP180;54434;50.096;20.082;2023-07-24T02:55:35;98314.40;;;17.96
67822;BMP180;54434;50.096;20.082;2023-07-24T02:58:12;98320.00;;;17.96
67822;BMP180;54434;50.096;20.082;2023-07-24T03:00:48;98319.80;;;18.00
67822;BMP180;54434;50.096;20.082;2023-07-24T03:03:24;98319.20;;;18.00
67822;BMP180;54434;50.096;20.082;2023-07-24T03:06:01;98322.20;;;18.00
67822;BMP180;54434;50.096;20.082;2023-07-24T03:08:38;98315.20;;;18.00
67822;BMP180;54434;50.096;20.082;2023-07-24T03:11:14;98316.40;;;18.00
67822;BMP180;54434;50.096;20.082;2023-07-24T03:13:51;98319.20;;;18.00
67822;BMP180;54434;50.096;20.082;2023-07-24T03:16:27;98322.60;;;18.00
67822;BMP180;54434;50.096;20.082;2023-07-24T03:19:04;98319.00;;;18.00
67822;BMP180;54434;50.096;20.082;2023-07-24T03:21:40;98320.00;;;18.10
67822;BMP180;54434;50.096;20.082;2023-07-24T03:24:17;98319.20;;;18.10
67822;BMP180;54434;50.096;20.082;2023-07-24T03:26:53;98313.40;;;18.12
67822;BMP180;54434;50.096;20.082;2023-07-24T03:29:30;98317.20;;;18.20
67822;BMP180;54434;50.096;20.082;2023-07-24T03:32:08;98317.20;;;18.22
67822;BMP180;54434;50.096;20.082;2023-07-24T03:34:45;98317.20;;;18.30
67822;BMP180;54434;50.096;20.082;2023-07-24T03:37:22;98313.20;;;18.40
67822;BMP180;54434;50.096;20.082;2023-07-24T03:39:59;98310.40;;;18.48
67822;BMP180;54434;50.096;20.082;2023-07-24T03:42:37;98310.40;;;18.52
67822;BMP180;54434;50.096;20.082;2023-07-24T03:45:14;98309.40;;;18.70
67822;BMP180;54434;50.096;20.082;2023-07-24T03:47:51;98315.80;;;18.80
67822;BMP180;54434;50.096;20.082;2023-07-24T03:50:30;98308.60;;;19.10
67822;BMP180;54434;50.096;20.082;2023-07-24T03:53:06;98310.00;;;19.50
67822;BMP180;54434;50.096;20.082;2023-07-24T03:55:43;98319.40;;;19.70
67822;BMP180;54434;50.096;20.082;2023-07-24T03:58:20;98318.40;;;19.80
67822;BMP180;54434;50.096;20.082;2023-07-24T04:00:57;98318.00;;;19.90
67822;BMP180;54434;50.096;20.082;2023-07-24T04:03:33;98316.60;;;19.90
67822;BMP180;54434;50.096;20.082;2023-07-24T04:06:10;98318.60;;;20.00
67822;BMP180;54434;50.096;20.082;2023-07-24T04:08:47;98318.00;;;20.00
67822;BMP180;54434;50.096;20.082;2023-07-24T04:11:23;98313.60;;;20.10
67822;BMP180;54434;50.096;20.082;2023-07-24T04:14:00;98323.40;;;20.12
67822;BMP180;54434;50.096;20.082;2023-07-24T04:16:36;98321.40;;;20.20
67822;BMP180;54434;50.096;20.082;2023-07-24T04:19:13;98319.40;;;20.30
67822;BMP180;54434;50.096;20.082;2023-07-24T04:21:49;98314.20;;;20.60
67822;BMP180;54434;50.096;20.082;2023-07-24T04:24:26;98316.40;;;21.00
67822;BMP180;54434;50.096;20.082;2023-07-24T04:27:02;98321.80;;;21.10
67822;BMP180;54434;50.096;20.082;2023-07-24T04:29:39;98322.00;;;21.24
67822;BMP180;54434;50.096;20.082;2023-07-24T04:32:16;98323.60;;;21.40
67822;BMP180;54434;50.096;20.082;2023-07-24T04:34:53;98329.20;;;21.70
67822;BMP180;54434;50.096;20.082;2023-07-24T04:37:29;98329.40;;;21.88
67822;BMP180;54434;50.096;20.082;2023-07-24T04:40:08;98334.60;;;22.00
67822;BMP180;54434;50.096;20.082;2023-07-24T04:42:45;98334.60;;;22.10
67822;BMP180;54434;50.096;20.082;2023-07-24T04:45:21;98332.20;;;22.38
67822;BMP180;54434;50.096;20.082;2023-07-24T04:47:58;98328.80;;;23.00
67822;BMP180;54434;50.096;20.082;2023-07-24T04:50:35;98331.20;;;23.72
67822;BMP180;54434;50.096;20.082;2023-07-24T04:53:11;98330.60;;;24.50
67822;BMP180;54434;50.096;20.082;2023-07-24T04:55:50;98330.20;;;25.26
67822;BMP180;54434;50.096;20.082;2023-07-24T04:58:26;98332.40;;;26.04
67822;BMP180;54434;50.096;20.082;2023-07-24T05:01:06;98333.60;;;26.78
67822;BMP180;54434;50.096;20.082;2023-07-24T05:03:44;98328.60;;;27.26
67822;BMP180;54434;50.096;20.082;2023-07-24T05:06:20;98335.40;;;27.82
67822;BMP180;54434;50.096;20.082;2023-07-24T05:08:58;98333.20;;;28.30
67822;BMP180;54434;50.096;20.082;2023-07-24T05:11:35;98328.60;;;28.80
67822;BMP180;54434;50.096;20.082;2023-07-24T05:14:11;98326.00;;;29.28
67822;BMP180;54434;50.096;20.082;2023-07-24T05:16:47;98321.60;;;29.70
67822;BMP180;54434;50.096;20.082;2023-07-24T05:19:24;98328.20;;;30.20
67822;BMP180;54434;50.096;20.082;2023-07-24T05:22:00;98323.60;;;30.62
67822;BMP180;54434;50.096;20.082;2023-07-24T05:24:37;98325.00;;;31.00
67822;BMP180;54434;50.096;20.082;2023-07-24T05:27:14;98328.00;;;31.48
67822;BMP180;54434;50.096;20.082;2023-07-24T05:29:51;98329.80;;;31.96
67822;BMP180;54434;50.096;20.082;2023-07-24T05:32:27;98328.00;;;32.42
67822;BMP180;54434;50.096;20.082;2023-07-24T05:35:05;98331.00;;;32.82
67822;BMP180;54434;50.096;20.082;2023-07-24T05:37:41;98335.20;;;33.00
67822;BMP180;54434;50.096;20.082;2023-07-24T05:40:18;98335.80;;;33.00
67822;BMP180;54434;50.096;20.082;2023-07-24T05:42:54;98338.60;;;32.90
67822;BMP180;54434;50.096;20.082;2023-07-24T05:45:31;98337.40;;;32.78
67822;BMP180;54434;50.096;20.082;2023-07-24T05:48:08;98333.20;;;32.60
67822;BMP180;54434;50.096;20.082;2023-07-24T05:50:44;98333.20;;;32.50
67822;BMP180;54434;50.096;20.082;2023-07-24T05:53:20;98338.20;;;32.22
67822;BMP180;54434;50.096;20.082;2023-07-24T05:56:09;98337.80;;;31.92
67822;BMP180;54434;50.096;20.082;2023-07-24T05:58:46;98338.00;;;32.00
67822;BMP180;54434;50.096;20.082;2023-07-24T06:01:22;98338.80;;;32.06
67822;BMP180;54434;50.096;20.082;2023-07-24T06:03:59;98339.00;;;32.20
67822;BMP180;54434;50.096;20.082;2023-07-24T06:06:36;98337.40;;;32.30
67822;BMP180;54434;50.096;20.082;2023-07-24T06:09:12;98346.20;;;32.30
67822;BMP180;54434;50.096;20.082;2023-07-24T06:11:48;98340.40;;;32.20
67822;BMP180;54434;50.096;20.082;2023-07-24T06:14:24;98346.20;;;32.40
67822;BMP180;54434;50.096;20.082;2023-07-24T06:17:06;98350.00;;;32.70
67822;BMP180;54434;50.096;20.082;2023-07-24T06:19:43;98345.40;;;32.92
67822;BMP180;54434;50.096;20.082;2023-07-24T06:22:19;98341.60;;;33.28
67822;BMP180;54434;50.096;20.082;2023-07-24T06:24:55;98340.80;;;33.70
67822;BMP180;54434;50.096;20.082;2023-07-24T06:27:32;98345.80;;;33.52
67822;BMP180;54434;50.096;20.082;2023-07-24T06:30:10;98345.60;;;33.40
67822;BMP180;54434;50.096;20.082;2023-07-24T06:32:50;98345.20;;;33.20
67822;BMP180;54434;50.096;20.082;2023-07-24T06:35:26;98342.80;;;32.80
67822;BMP180;54434;50.096;20.082;2023-07-24T06:38:03;98345.00;;;32.50
67822;BMP180;54434;50.096;20.082;2023-07-24T06:40:40;98343.80;;;32.50
67822;BMP180;54434;50.096;20.082;2023-07-24T06:43:16;98338.40;;;32.70
67822;BMP180;54434;50.096;20.082;2023-07-24T06:45:52;98338.40;;;32.90
67822;BMP180;54434;50.096;20.082;2023-07-24T06:48:29;98330.40;;;32.84
67822;BMP180;54434;50.096;20.082;2023-07-24T06:51:05;98334.40;;;32.98
67822;BMP180;54434;50.096;20.082;2023-07-24T06:53:42;98332.60;;;33.22
67822;BMP180;54434;50.096;20.082;2023-07-24T06:56:18;98335.40;;;33.50
67822;BMP180;54434;50.096;20.082;2023-07-24T06:58:54;98341.80;;;33.56
67822;BMP180;54434;50.096;20.082;2023-07-24T07:01:31;98339.60;;;33.60
67822;BMP180;54434;50.096;20.082;2023-07-24T07:04:08;98336.00;;;33.88
67822;BMP180;54434;50.096;20.082;2023-07-24T07:06:44;98339.60;;;34.08
67822;BMP180;54434;50.096;20.082;2023-07-24T07:09:20;98350.60;;;34.38
67822;BMP180;54434;50.096;20.082;2023-07-24T07:11:57;98345.60;;;34.80
67822;BMP180;54434;50.096;20.082;2023-07-24T07:14:33;98342.00;;;35.20
67822;BMP180;54434;50.096;20.082;2023-07-24T07:17:10;98340.20;;;35.58
67822;BMP180;54434;50.096;20.082;2023-07-24T07:19:46;98337.60;;;35.80
67822;BMP180;54434;50.096;20.082;2023-07-24T07:22:23;98344.60;;;35.90
67822;BMP180;54434;50.096;20.082;2023-07-24T07:24:59;98339.20;;;36.00
67822;BMP180;54434;50.096;20.082;2023-07-24T07:27:36;98335.80;;;35.96
67822;BMP180;54434;50.096;20.082;2023-07-24T07:30:14;98342.00;;;35.96
67822;BMP180;54434;50.096;20.082;2023-07-24T07:32:51;98341.20;;;36.00
67822;BMP180;54434;50.096;20.082;2023-07-24T07:35:28;98346.00;;;36.30
67822;BMP180;54434;50.096;20.082;2023-07-24T07:38:05;98343.20;;;36.40
67822;BMP180;54434;50.096;20.082;2023-07-24T07:40:43;98346.20;;;36.50
67822;BMP180;54434;50.096;20.082;2023-07-24T07:43:19;98350.80;;;36.44
67822;BMP180;54434;50.096;20.082;2023-07-24T07:45:55;98343.20;;;36.20
67822;BMP180;54434;50.096;20.082;2023-07-24T07:48:33;98344.00;;;36.10
67822;BMP180;54434;50.096;20.082;2023-07-24T07:51:09;98340.60;;;35.90
67822;BMP180;54434;50.096;20.082;2023-07-24T07:53:46;98342.00;;;35.70
67822;BMP180;54434;50.096;20.082;2023-07-24T07:56:23;98340.00;;;35.38
67822;BMP180;54434;50.096;20.082;2023-07-24T07:58:59;98334.40;;;35.32
67822;BMP180;54434;50.096;20.082;2023-07-24T08:01:37;98324.80;;;35.50
67822;BMP180;54434;50.096;20.082;2023-07-24T08:04:15;98320.80;;;35.50
67822;BMP180;54434;50.096;20.082;2023-07-24T08:06:53;98326.60;;;35.70
67822;BMP180;54434;50.096;20.082;2023-07-24T08:09:30;98325.40;;;35.86
67822;BMP180;54434;50.096;20.082;2023-07-24T08:12:09;98315.80;;;36.00
67822;BMP180;54434;50.096;20.082;2023-07-24T08:14:46;98315.40;;;36.00
67822;BMP180;54434;50.096;20.082;2023-07-24T08:17:22;98320.20;;;36.00
67822;BMP180;54434;50.096;20.082;2023-07-24T08:20:00;98320.20;;;36.06
67822;BMP180;54434;50.096;20.082;2023-07-24T08:22:38;98320.60;;;36.20
67822;BMP180;54434;50.096;20.082;2023-07-24T08:25:15;98318.80;;;36.44
67822;BMP180;54434;50.096;20.082;2023-07-24T08:27:51;98309.80;;;36.70
67822;BMP180;54434;50.096;20.082;2023-07-24T08:30:39;98313.20;;;36.92
67822;BMP180;54434;50.096;20.082;2023-07-24T08:33:16;98311.60;;;36.84
67822;BMP180;54434;50.096;20.082;2023-07-24T08:36:02;98309.40;;;36.60
67822;BMP180;54434;50.096;20.082;2023-07-24T08:38:39;98304.00;;;36.50
67822;BMP180;54434;50.096;20.082;2023-07-24T08:41:17;98298.00;;;36.52
67822;BMP180;54434;50.096;20.082;2023-07-24T08:43:54;98298.40;;;36.60
67822;BMP180;54434;50.096;20.082;2023-07-24T08:46:30;98294.40;;;36.40
67822;BMP180;54434;50.096;20.082;2023-07-24T08:49:12;98297.00;;;36.14
67822;BMP180;54434;50.096;20.082;2023-07-24T08:51:49;98295.20;;;36.00
67822;BMP180;54434;50.096;20.082;2023-07-24T08:54:27;98296.40;;;36.00
67822;BMP180;54434;50.096;20.082;2023-07-24T08:57:06;98294.00;;;35.90
67822;BMP180;54434;50.096;20.082;2023-07-24T08:59:43;98288.20;;;35.90
67822;BMP180;54434;50.096;20.082;2023-07-24T09:02:20;98287.00;;;35.76
67822;BMP180;54434;50.096;20.082;2023-07-24T09:04:56;98278.40;;;35.60
67822;BMP180;54434;50.096;20.082;2023-07-24T09:07:34;98280.00;;;35.40
67822;BMP180;54434;50.096;20.082;2023-07-24T09:10:13;98282.00;;;35.10
67822;BMP180;54434;50.096;20.082;2023-07-24T09:12:50;98280.20;;;35.00
67822;BMP180;54434;50.096;20.082;2023-07-24T09:15:27;98274.60;;;34.80
67822;BMP180;54434;50.096;20.082;2023-07-24T09:18:04;98269.60;;;34.80
67822;BMP180;54434;50.096;20.082;2023-07-24T09:20:45;98262.80;;;34.60
67822;BMP180;54434;50.096;20.082;2023-07-24T09:23:30;98271.20;;;34.40
67822;BMP180;54434;50.096;20.082;2023-07-24T09:26:11;98266.00;;;34.20
67822;BMP180;54434;50.096;20.082;2023-07-24T09:28:56;98267.60;;;34.02
67822;BMP180;54434;50.096;20.082;2023-07-24T09:31:40;98264.00;;;33.86
67822;BMP180;54434;50.096;20.082;2023-07-24T09:34:22;98260.80;;;33.58
67822;BMP180;54434;50.096;20.082;2023-07-24T09:37:00;98260.80;;;33.30
67822;BMP180;54434;50.096;20.082;2023-07-24T09:39:38;98265.40;;;33.00
67822;BMP180;54434;50.096;20.082;2023-07-24T09:42:15;98261.40;;;32.82
67822;BMP180;54434;50.096;20.082;2023-07-24T09:44:51;98254.40;;;32.70
67822;BMP180;54434;50.096;20.082;2023-07-24T09:47:28;98250.00;;;32.70
67822;BMP180;54434;50.096;20.082;2023-07-24T09:50:25;98251.00;;;32.70
67822;BMP180;54434;50.096;20.082;2023-07-24T09:53:02;98236.80;;;32.70
67822;BMP180;54434;50.096;20.082;2023-07-24T09:55:49;98233.00;;;32.80
67822;BMP180;54434;50.096;20.082;2023-07-24T09:58:28;98227.00;;;32.90
67822;BMP180;54434;50.096;20.082;2023-07-24T10:01:08;98230.40;;;33.04
67822;BMP180;54434;50.096;20.082;2023-07-24T10:03:49;98223.40;;;33.20
67822;BMP180;54434;50.096;20.082;2023-07-24T10:06:24;98223.80;;;33.30
67822;BMP180;54434;50.096;20.082;2023-07-24T10:09:02;98212.80;;;33.42
67822;BMP180;54434;50.096;20.082;2023-07-24T10:11:38;98208.20;;;33.54
67822;BMP180;54434;50.096;20.082;2023-07-24T10:14:14;98208.20;;;33.60
67822;BMP180;54434;50.096;20.082;2023-07-24T10:16:51;98204.60;;;33.70
67822;BMP180;54434;50.096;20.082;2023-07-24T10:19:42;98193.80;;;33.52
67822;BMP180;54434;50.096;20.082;2023-07-24T10:22:23;98183.40;;;33.32
67822;BMP180;54434;50.096;20.082;2023-07-24T10:25:01;98188.00;;;33.04
67822;BMP180;54434;50.096;20.082;2023-07-24T10:27:43;98198.20;;;32.90
67822;BMP180;54434;50.096;20.082;2023-07-24T10:30:31;98202.40;;;32.60
67822;BMP180;54434;50.096;20.082;2023-07-24T10:33:13;98201.80;;;32.40
67822;BMP180;54434;50.096;20.082;2023-07-24T10:35:54;98205.40;;;32.30
67822;BMP180;54434;50.096;20.082;2023-07-24T10:38:39;98199.60;;;32.04
67822;BMP180;54434;50.096;20.082;2023-07-24T10:41:16;98197.00;;;31.80
67822;BMP180;54434;50.096;20.082;2023-07-24T10:44:00;98200.60;;;31.70
67822;BMP180;54434;50.096;20.082;2023-07-24T10:46:43;98199.20;;;31.50
67822;BMP180;54434;50.096;20.082;2023-07-24T10:49:24;98188.60;;;31.40
67822;BMP180;54434;50.096;20.082;2023-07-24T10:52:02;98195.60;;;31.40
67822;BMP180;54434;50.096;20.082;2023-07-24T10:54:38;98192.80;;;31.40
67822;BMP180;54434;50.096;20.082;2023-07-24T10:57:15;98199.60;;;31.50
67822;BMP180;54434;50.096;20.082;2023-07-24T10:59:51;98197.20;;;31.70
67822;BMP180;54434;50.096;20.082;2023-07-24T11:02:28;98192.20;;;31.70
67822;BMP180;54434;50.096;20.082;2023-07-24T11:05:07;98194.20;;;31.80
67822;BMP180;54434;50.096;20.082;2023-07-24T11:07:43;98186.40;;;31.70
67822;BMP180;54434;50.096;20.082;2023-07-24T11:10:21;98184.40;;;31.70
67822;BMP180;54434;50.096;20.082;2023-07-24T11:12:58;98185.60;;;31.70
67822;BMP180;54434;50.096;20.082;2023-07-24T11:15:34;98181.80;;;31.70
67822;BMP180;54434;50.096;20.082;2023-07-24T11:18:11;98181.00;;;31.78
67822;BMP180;54434;50.096;20.082;2023-07-24T11:20:54;98182.20;;;31.80
67822;BMP180;54434;50.096;20.082;2023-07-24T11:23:31;98183.40;;;31.80
67822;BMP180;54434;50.096;20.082;2023-07-24T11:26:08;98177.80;;;31.80
67822;BMP180;54434;50.096;20.082;2023-07-24T11:28:45;98177.00;;;31.60
67822;BMP180;54434;50.096;20.082;2023-07-24T11:31:22;98179.60;;;31.60
67822;BMP180;54434;50.096;20.082;2023-07-24T11:33:59;98178.80;;;31.60
67822;BMP180;54434;50.096;20.082;2023-07-24T11:36:36;98182.40;;;31.70
67822;BMP180;54434;50.096;20.082;2023-07-24T11:39:12;98180.80;;;31.60
67822;BMP180;54434;50.096;20.082;2023-07-24T11:41:52;98175.20;;;31.50
67822;BMP180;54434;50.096;20.082;2023-07-24T11:44:31;98170.60;;;31.40
67822;BMP180;54434;50.096;20.082;2023-07-24T11:47:09;98166.00;;;31.34
67822;BMP180;54434;50.096;20.082;2023-07-24T11:49:45;98161.60;;;31.28
67822;BMP180;54434;50.096;20.082;2023-07-24T11:52:43;98162.00;;;31.12
67822;BMP180;54434;50.096;20.082;2023-07-24T11:55:31;98156.20;;;31.20
67822;BMP180;54434;50.096;20.082;2023-07-24T11:58:08;98152.80;;;31.38
67822;BMP180;54434;50.096;20.082;2023-07-24T12:00:46;98152.40;;;31.40
67822;BMP180;54434;50.096;20.082;2023-07-24T12:03:28;98156.60;;;31.50
67822;BMP180;54434;50.096;20.082;2023-07-24T12:06:05;98150.40;;;31.50
67822;BMP180;54434;50.096;20.082;2023-07-24T12:08:49;98146.40;;;31.50
67822;BMP180;54434;50.096;20.082;2023-07-24T12:11:28;98143.20;;;31.60
67822;BMP180;54434;50.096;20.082;2023-07-24T12:14:05;98137.80;;;31.60
67822;BMP180;54434;50.096;20.082;2023-07-24T12:16:42;98136.40;;;31.70
67822;BMP180;54434;50.096;20.082;2023-07-24T12:19:18;98134.40;;;31.80
67822;BMP180;54434;50.096;20.082;2023-07-24T12:21:55;98131.20;;;31.80
67822;BMP180;54434;50.096;20.082;2023-07-24T12:24:31;98130.80;;;31.90
67822;BMP180;54434;50.096;20.082;2023-07-24T12:27:08;98124.60;;;32.00
67822;BMP180;54434;50.096;20.082;2023-07-24T12:29:45;98117.80;;;32.10
67822;BMP180;54434;50.096;20.082;2023-07-24T12:32:21;98110.40;;;32.14
67822;BMP180;54434;50.096;20.082;2023-07-24T12:34:58;98108.20;;;32.20
67822;BMP180;54434;50.096;20.082;2023-07-24T12:37:35;98106.80;;;32.20
67822;BMP180;54434;50.096;20.082;2023-07-24T12:40:13;98098.40;;;32.20
67822;BMP180;54434;50.096;20.082;2023-07-24T12:42:49;98092.40;;;32.10
67822;BMP180;54434;50.096;20.082;2023-07-24T12:45:26;98082.80;;;32.00
67822;BMP180;54434;50.096;20.082;2023-07-24T12:48:03;98078.20;;;31.90
67822;BMP180;54434;50.096;20.082;2023-07-24T12:50:39;98070.20;;;31.90
67822;BMP180;54434;50.096;20.082;2023-07-24T12:53:16;98062.60;;;31.84
67822;BMP180;54434;50.096;20.082;2023-07-24T12:55:58;98060.80;;;31.70
67822;BMP180;54434;50.096;20.082;2023-07-24T12:58:35;98056.40;;;31.58
67822;BMP180;54434;50.096;20.082;2023-07-24T13:01:11;98050.00;;;31.42
67822;BMP180;54434;50.096;20.082;2023-07-24T13:03:48;98049.80;;;31.40
67822;BMP180;54434;50.096;20.082;2023-07-24T13:06:25;98050.20;;;31.30
67822;BMP180;54434;50.096;20.082;2023-07-24T13:09:02;98042.00;;;31.30
67822;BMP180;54434;50.096;20.082;2023-07-24T13:11:39;98039.00;;;31.20
67822;BMP180;54434;50.096;20.082;2023-07-24T13:14:15;98040.60;;;31.20
67822;BMP180;54434;50.096;20.082;2023-07-24T13:16:52;98035.60;;;31.10
67822;BMP180;54434;50.096;20.082;2023-07-24T13:19:29;98023.00;;;31.00
67822;BMP180;54434;50.096;20.082;2023-07-24T13:22:06;98017.00;;;30.90
67822;BMP180;54434;50.096;20.082;2023-07-24T13:24:43;98013.60;;;30.90
67822;BMP180;54434;50.096;20.082;2023-07-24T13:27:19;98008.80;;;30.90
67822;BMP180;54434;50.096;20.082;2023-07-24T13:29:55;98002.20;;;30.96
67822;BMP180;54434;50.096;20.082;2023-07-24T13:32:32;97994.20;;;30.98
67822;BMP180;54434;50.096;20.082;2023-07-24T13:35:09;97987.40;;;31.00
67822;BMP180;54434;50.096;20.082;2023-07-24T13:37:46;97981.00;;;31.00
67822;BMP180;54434;50.096;20.082;2023-07-24T13:40:22;97975.00;;;31.00
67822;BMP180;54434;50.096;20.082;2023-07-24T13:42:59;97965.20;;;31.00
67822;BMP180;54434;50.096;20.082;2023-07-24T13:45:37;97959.40;;;31.00
67822;BMP180;54434;50.096;20.082;2023-07-24T13:48:13;97959.20;;;31.00
67822;BMP180;54434;50.096;20.082;2023-07-24T13:50:50;97957.20;;;31.10
67822;BMP180;54434;50.096;20.082;2023-07-24T13:53:27;97949.60;;;31.16
67822;BMP180;54434;50.096;20.082;2023-07-24T13:56:04;97947.40;;;31.10
67822;BMP180;54434;50.096;20.082;2023-07-24T13:58:41;97941.80;;;31.10
67822;BMP180;54434;50.096;20.082;2023-07-24T14:01:17;97937.60;;;31.14
67822;BMP180;54434;50.096;20.082;2023-07-24T14:03:54;97932.00;;;31.18
67822;BMP180;54434;50.096;20.082;2023-07-24T14:06:31;97924.00;;;31.10
67822;BMP180;54434;50.096;20.082;2023-07-24T14:09:08;97916.80;;;31.00
67822;BMP180;54434;50.096;20.082;2023-07-24T14:11:44;97910.00;;;30.90
67822;BMP180;54434;50.096;20.082;2023-07-24T14:14:22;97908.60;;;30.84
67822;BMP180;54434;50.096;20.082;2023-07-24T14:16:59;97903.40;;;30.80
67822;BMP180;54434;50.096;20.082;2023-07-24T14:19:36;97903.00;;;30.80
67822;BMP180;54434;50.096;20.082;2023-07-24T14:22:12;97898.60;;;30.70
67822;BMP180;54434;50.096;20.082;2023-07-24T14:24:49;97898.40;;;30.70
67822;BMP180;54434;50.096;20.082;2023-07-24T14:27:26;97899.00;;;30.78
67822;BMP180;54434;50.096;20.082;2023-07-24T14:30:02;97902.80;;;30.78
67822;BMP180;54434;50.096;20.082;2023-07-24T14:32:40;97901.60;;;30.80
67822;BMP180;54434;50.096;20.082;2023-07-24T14:35:16;97899.60;;;30.80
67822;BMP180;54434;50.096;20.082;2023-07-24T14:37:53;97895.20;;;30.90
67822;BMP180;54434;50.096;20.082;2023-07-24T14:40:29;97892.80;;;30.90
67822;BMP180;54434;50.096;20.082;2023-07-24T14:43:06;97891.00;;;31.00
67822;BMP180;54434;50.096;20.082;2023-07-24T14:45:42;97883.40;;;31.00
67822;BMP180;54434;50.096;20.082;2023-07-24T14:48:19;97881.00;;;31.00
67822;BMP180;54434;50.096;20.082;2023-07-24T14:50:55;97885.00;;;30.90
67822;BMP180;54434;50.096;20.082;2023-07-24T14:53:32;97882.60;;;30.90
67822;BMP180;54434;50.096;20.082;2023-07-24T14:56:09;97883.80;;;30.76